Time,TemperatureF,DewpointF,PressureIn,WindDirection,WindDirectionDegrees,WindSpeedMPH,WindSpeedGustMPH,Humidity,HourlyPrecipIn,Conditions,Clouds,dailyrainin,SoftwareType,DateUTC
2013-03-16 00:00:00,52.4,50.1,29.86,South,191,1.0,1.0,92,0.00,,,0.00,Wunderground v.1.15,2013-03-16 07:00:00,
2013-03-16 00:10:00,52.3,50.0,29.86,South,171,3.0,6.0,92,0.00,,,0.00,Wunderground v.1.15,2013-03-16 07:10:00,
2013-03-16 00:25:00,52.0,49.7,29.86,South,176,3.0,3.0,92,0.00,,,0.00,Wunderground v.1.15,2013-03-16 07:25:00,
2013-03-16 00:30:00,52.0,49.7,29.86,SSW,192,3.0,3.0,92,0.00,,,0.00,Wunderground v.1.15,2013-03-16 07:30:00,
2013-03-16 00:36:00,52.0,49.7,29.86,SSW,193,2.0,2.0,92,0.00,,,0.00,Wunderground v.1.15,2013-03-16 07:36:00,
2013-03-16 00:40:00,52.0,49.7,29.86,SSE,164,2.0,2.0,92,0.00,,,0.00,Wunderground v.1.15,2013-03-16 07:40:00,
2013-03-16 00:50:00,52.0,49.7,29.86,South,174,2.0,2.0,92,0.00,,,0.00,Wunderground v.1.15,2013-03-16 07:50:00,
2013-03-16 01:01:00,52.0,49.7,29.86,South,191,1.0,1.0,92,0.00,,,0.00,Wunderground v.1.15,2013-03-16 08:01:00,
2013-03-16 01:05:00,52.0,49.7,29.86,South,182,1.0,3.0,92,0.00,,,0.00,Wunderground v.1.15,2013-03-16 08:05:00,
2013-03-16 01:15:00,52.1,50.1,29.86,SSW,192,1.0,1.0,93,0.00,,,0.00,Wunderground v.1.15,2013-03-16 08:15:00,
2013-03-16 01:20:00,52.1,49.8,29.86,SSE,162,2.0,2.0,92,0.00,,,0.00,Wunderground v.1.15,2013-03-16 08:20:00,
2013-03-16 01:26:00,52.1,50.1,29.86,SSE,162,1.0,2.0,93,0.00,,,0.00,Wunderground v.1.15,2013-03-16 08:26:00,
2013-03-16 01:30:00,52.1,50.1,29.86,SSE,158,2.0,5.0,93,0.00,,,0.00,Wunderground v.1.15,2013-03-16 08:30:00,
2013-03-16 01:40:00,52.0,49.7,29.86,SE,128,3.0,3.0,92,0.00,,,0.00,Wunderground v.1.15,2013-03-16 08:40:00,
2013-03-16 01:45:00,51.8,49.5,29.86,East,86,2.0,3.0,92,0.00,,,0.00,Wunderground v.1.15,2013-03-16 08:45:00,
2013-03-16 01:55:00,51.8,49.8,29.86,East,80,1.0,1.0,93,0.00,,,0.00,Wunderground v.1.15,2013-03-16 08:55:00,
2013-03-16 02:05:00,51.8,49.8,29.86,SE,126,2.0,2.0,93,0.00,,,0.00,Wunderground v.1.15,2013-03-16 09:05:00,
2013-03-16 02:10:00,51.8,49.8,29.86,SSW,193,2.0,2.0,93,0.00,,,0.00,Wunderground v.1.15,2013-03-16 09:10:00,
2013-03-16 02:20:00,51.8,49.8,29.87,SSE,165,1.0,1.0,93,0.00,,,0.00,Wunderground v.1.15,2013-03-16 09:20:00,
2013-03-16 02:30:00,51.8,49.8,29.86,SE,145,2.0,2.0,93,0.00,,,0.00,Wunderground v.1.15,2013-03-16 09:30:00,
2013-03-16 02:45:00,51.6,49.6,29.86,South,175,2.0,2.0,93,0.00,,,0.00,Wunderground v.1.15,2013-03-16 09:45:00,
2013-03-16 02:55:00,51.6,49.6,29.86,SSW,200,2.0,4.0,93,0.00,,,0.00,Wunderground v.1.15,2013-03-16 09:55:00,
2013-03-16 03:00:00,51.6,49.6,29.86,SSE,152,3.0,3.0,93,0.00,,,0.00,Wunderground v.1.15,2013-03-16 10:00:00,
2013-03-16 03:10:00,51.4,49.4,29.86,SE,136,2.0,2.0,93,0.00,,,0.00,Wunderground v.1.15,2013-03-16 10:10:00,
2013-03-16 03:15:00,51.4,49.4,29.86,SE,126,2.0,3.0,93,0.00,,,0.00,Wunderground v.1.15,2013-03-16 10:15:00,
2013-03-16 03:25:00,51.4,49.4,29.86,South,178,2.0,2.0,93,0.00,,,0.00,Wunderground v.1.15,2013-03-16 10:25:00,
2013-03-16 03:35:00,51.4,49.4,29.85,ESE,123,1.0,1.0,93,0.00,,,0.00,Wunderground v.1.15,2013-03-16 10:35:00,
2013-03-16 03:40:00,51.6,49.4,29.85,ESE,106,2.0,3.0,92,0.00,,,0.00,Wunderground v.1.15,2013-03-16 10:40:00,
2013-03-16 03:45:00,51.4,49.2,29.84,ESE,102,3.0,3.0,92,0.00,,,0.00,Wunderground v.1.15,2013-03-16 10:45:00,
2013-03-16 03:55:00,51.3,49.1,29.84,SE,137,2.0,2.0,92,0.00,,,0.00,Wunderground v.1.15,2013-03-16 10:55:00,
2013-03-16 04:00:00,51.3,49.1,29.84,ESE,104,2.0,3.0,92,0.00,,,0.00,Wunderground v.1.15,2013-03-16 11:00:00,
2013-03-16 04:05:00,51.3,49.1,29.84,ESE,112,2.0,4.0,92,0.00,,,0.00,Wunderground v.1.15,2013-03-16 11:05:00,
2013-03-16 04:10:00,51.1,48.9,29.84,ESE,120,2.0,4.0,92,0.00,,,0.00,Wunderground v.1.15,2013-03-16 11:10:00,
2013-03-16 04:20:00,50.8,48.6,29.84,East,97,3.0,3.0,92,0.00,,,0.00,Wunderground v.1.15,2013-03-16 11:20:00,
2013-03-16 04:25:00,50.8,48.6,29.84,SE,130,3.0,3.0,92,0.00,,,0.00,Wunderground v.1.15,2013-03-16 11:25:00,
2013-03-16 04:35:00,50.7,48.2,29.83,SE,126,3.0,3.0,91,0.00,,,0.00,Wunderground v.1.15,2013-03-16 11:35:00,
2013-03-16 04:45:00,50.7,48.2,29.83,East,96,2.0,2.0,91,0.00,,,0.00,Wunderground v.1.15,2013-03-16 11:45:00,
2013-03-16 04:55:00,51.0,48.5,29.83,East,96,1.0,1.0,91,0.00,,,0.00,Wunderground v.1.15,2013-03-16 11:55:00,
2013-03-16 05:00:00,51.0,48.5,29.83,ENE,69,1.0,2.0,91,0.00,,,0.00,Wunderground v.1.15,2013-03-16 12:00:00,
2013-03-16 05:06:00,51.0,48.5,29.84,East,82,2.0,3.0,91,0.00,,,0.00,Wunderground v.1.15,2013-03-16 12:06:00,
2013-03-16 05:10:00,51.0,48.2,29.84,SE,133,3.0,3.0,90,0.00,,,0.00,Wunderground v.1.15,2013-03-16 12:10:00,
2013-03-16 05:20:00,51.1,48.3,29.83,ENE,65,1.0,1.0,90,0.00,,,0.00,Wunderground v.1.15,2013-03-16 12:20:00,
2013-03-16 05:30:00,51.1,48.3,29.83,SE,140,3.0,3.0,90,0.00,,,0.00,Wunderground v.1.15,2013-03-16 12:30:00,
2013-03-16 05:35:00,51.1,48.3,29.83,SE,126,3.0,4.0,90,0.00,,,0.00,Wunderground v.1.15,2013-03-16 12:35:00,
2013-03-16 05:45:00,51.3,48.2,29.84,SE,144,1.0,1.0,89,0.00,,,0.00,Wunderground v.1.15,2013-03-16 12:45:00,
2013-03-16 05:55:00,51.3,48.2,29.84,SE,143,1.0,1.0,89,0.00,,,0.00,Wunderground v.1.15,2013-03-16 12:55:00,
2013-03-16 06:10:00,51.3,48.2,29.84,SSE,162,1.0,1.0,89,0.00,,,0.00,Wunderground v.1.15,2013-03-16 13:10:00,
2013-03-16 06:20:00,51.1,47.7,29.84,South,181,1.0,3.0,88,0.00,,,0.00,Wunderground v.1.15,2013-03-16 13:20:00,
2013-03-16 06:25:00,51.0,47.6,29.84,SSW,210,2.0,3.0,88,0.00,,,0.00,Wunderground v.1.15,2013-03-16 13:25:00,
2013-03-16 06:30:00,51.0,47.6,29.85,SE,124,2.0,2.0,88,0.00,,,0.00,Wunderground v.1.15,2013-03-16 13:30:00,
2013-03-16 06:35:00,51.1,47.7,29.85,SE,124,1.0,2.0,88,0.00,,,0.00,Wunderground v.1.15,2013-03-16 13:35:00,
2013-03-16 06:45:00,51.3,47.9,29.85,SE,124,0.0,0.0,88,0.00,,,0.00,Wunderground v.1.15,2013-03-16 13:45:00,
2013-03-16 06:55:00,51.3,47.9,29.85,SE,124,0.0,1.0,88,0.00,,,0.00,Wunderground v.1.15,2013-03-16 13:55:00,
2013-03-16 07:00:00,51.3,47.9,29.85,SE,124,0.0,0.0,88,0.00,,,0.00,Wunderground v.1.15,2013-03-16 14:00:00,
2013-03-16 07:10:00,51.3,47.9,29.85,SE,124,1.0,1.0,88,0.00,,,0.00,Wunderground v.1.15,2013-03-16 14:10:00,
2013-03-16 07:20:00,51.4,48.0,29.85,SE,124,0.0,0.0,88,0.00,,,0.00,Wunderground v.1.15,2013-03-16 14:20:00,
2013-03-16 07:25:00,51.4,48.0,29.85,SE,124,0.0,1.0,88,0.00,,,0.00,Wunderground v.1.15,2013-03-16 14:25:00,
2013-03-16 07:35:00,51.7,48.3,29.85,ESE,109,1.0,1.0,88,0.00,,,0.00,Wunderground v.1.15,2013-03-16 14:35:00,
2013-03-16 07:45:00,51.8,48.4,29.86,East,93,1.0,1.0,88,0.00,,,0.00,Wunderground v.1.15,2013-03-16 14:45:00,
2013-03-16 07:56:00,52.0,48.3,29.86,East,93,1.0,1.0,87,0.00,,,0.00,Wunderground v.1.15,2013-03-16 14:56:00,
2013-03-16 08:00:00,51.8,48.1,29.86,East,93,0.0,1.0,87,0.00,,,0.00,Wunderground v.1.15,2013-03-16 15:00:00,
2013-03-16 08:10:00,52.0,48.3,29.86,East,97,2.0,2.0,87,0.00,,,0.00,Wunderground v.1.15,2013-03-16 15:10:00,
2013-03-16 08:15:00,52.1,48.3,29.85,SE,133,2.0,4.0,87,0.00,,,0.00,Wunderground v.1.15,2013-03-16 15:15:00,
2013-03-16 08:25:00,52.1,48.3,29.85,ESE,120,2.0,2.0,87,0.00,,,0.00,Wunderground v.1.15,2013-03-16 15:25:00,
2013-03-16 08:40:00,52.0,48.3,29.86,East,100,2.0,2.0,87,0.00,,,0.00,Wunderground v.1.15,2013-03-16 15:40:00,
2013-03-16 08:45:00,52.0,48.3,29.86,ESE,110,3.0,3.0,87,0.00,,,0.00,Wunderground v.1.15,2013-03-16 15:45:00,
2013-03-16 08:55:00,52.1,48.3,29.86,ESE,103,2.0,3.0,87,0.00,,,0.00,Wunderground v.1.15,2013-03-16 15:55:00,
2013-03-16 09:05:00,52.1,48.0,29.87,East,99,2.0,2.0,86,0.00,,,0.00,Wunderground v.1.15,2013-03-16 16:05:00,
2013-03-16 09:10:00,52.1,48.0,29.87,ESE,116,1.0,2.0,86,0.00,,,0.00,Wunderground v.1.15,2013-03-16 16:10:00,
2013-03-16 09:20:00,52.3,47.9,29.87,ENE,68,1.0,1.0,85,0.00,,,0.00,Wunderground v.1.15,2013-03-16 16:20:00,
2013-03-16 09:30:00,52.7,48.3,29.87,ENE,68,1.0,1.0,85,0.00,,,0.00,Wunderground v.1.15,2013-03-16 16:30:00,
2013-03-16 09:35:00,52.9,48.2,29.87,ENE,68,1.0,1.0,84,0.00,,,0.00,Wunderground v.1.15,2013-03-16 16:35:00,
2013-03-16 09:45:00,53.0,48.3,29.87,ENE,68,0.0,0.0,84,0.00,,,0.00,Wunderground v.1.15,2013-03-16 16:45:00,
2013-03-16 09:55:00,53.6,48.6,29.87,ENE,68,0.0,0.0,83,0.00,,,0.00,Wunderground v.1.15,2013-03-16 16:55:00,
2013-03-16 10:00:00,53.9,48.9,29.87,South,174,0.0,2.0,83,0.00,,,0.00,Wunderground v.1.15,2013-03-16 17:00:00,
2013-03-16 10:10:00,54.2,48.5,29.87,SE,144,2.0,5.0,81,0.00,,,0.00,Wunderground v.1.15,2013-03-16 17:10:00,
2013-03-16 10:15:00,54.4,48.7,29.87,SE,124,3.0,5.0,81,0.00,,,0.00,Wunderground v.1.15,2013-03-16 17:15:00,
2013-03-16 10:25:00,54.5,48.1,29.87,East,90,3.0,3.0,79,0.00,,,0.00,Wunderground v.1.15,2013-03-16 17:25:00,
2013-03-16 10:35:00,55.1,48.4,29.87,SSW,199,1.0,3.0,78,0.00,,,0.00,Wunderground v.1.15,2013-03-16 17:35:00,
2013-03-16 10:46:00,55.1,48.0,29.87,SSE,158,2.0,2.0,77,0.00,,,0.00,Wunderground v.1.15,2013-03-16 17:46:00,
2013-03-16 11:00:00,56.0,48.5,29.87,SSW,200,1.0,1.0,76,0.00,,,0.00,Wunderground v.1.15,2013-03-16 18:00:00,
2013-03-16 11:05:00,56.1,48.3,29.87,ESE,103,2.0,2.0,75,0.00,,,0.00,Wunderground v.1.15,2013-03-16 18:05:00,
2013-03-16 11:15:00,57.1,48.9,29.87,SSW,212,1.0,2.0,74,0.00,,,0.00,Wunderground v.1.15,2013-03-16 18:15:00,
2013-03-16 11:20:00,57.4,48.4,29.87,WSW,240,2.0,6.0,72,0.00,,,0.00,Wunderground v.1.15,2013-03-16 18:20:00,
2013-03-16 11:30:00,57.5,48.5,29.86,SSW,208,3.0,3.0,72,0.00,,,0.00,Wunderground v.1.15,2013-03-16 18:30:00,
2013-03-16 11:35:00,57.8,48.8,29.86,SW,217,3.0,3.0,72,0.00,,,0.00,Wunderground v.1.15,2013-03-16 18:35:00,
2013-03-16 11:45:00,58.6,49.2,29.86,SSW,210,3.0,5.0,71,0.00,,,0.00,Wunderground v.1.15,2013-03-16 18:45:00,
2013-03-16 11:50:00,58.4,48.7,29.86,SSW,200,3.0,5.0,70,0.00,,,0.00,Wunderground v.1.15,2013-03-16 18:50:00,
2013-03-16 12:00:00,60.1,49.5,29.86,South,182,4.0,4.0,68,0.00,,,0.00,Wunderground v.1.15,2013-03-16 19:00:00,
2013-03-16 12:05:00,60.5,49.1,29.86,SSW,200,4.0,6.0,66,0.00,,,0.00,Wunderground v.1.15,2013-03-16 19:05:00,
2013-03-16 12:16:00,61.1,50.1,29.86,South,174,6.0,6.0,67,0.00,,,0.00,Wunderground v.1.15,2013-03-16 19:16:00,
2013-03-16 12:20:00,60.5,49.9,29.86,SSW,203,6.0,6.0,68,0.00,,,0.00,Wunderground v.1.15,2013-03-16 19:20:00,
2013-03-16 12:25:00,60.6,49.6,29.86,South,191,5.0,6.0,67,0.00,,,0.00,Wunderground v.1.15,2013-03-16 19:25:00,
2013-03-16 12:35:00,61.2,50.2,29.86,SW,215,6.0,7.0,67,0.00,,,0.00,Wunderground v.1.15,2013-03-16 19:35:00,
2013-03-16 12:50:00,60.6,49.2,29.85,South,175,5.0,6.0,66,0.00,,,0.00,Wunderground v.1.15,2013-03-16 19:50:00,
2013-03-16 12:55:00,59.8,49.6,29.85,SW,219,5.0,6.0,69,0.00,,,0.00,Wunderground v.1.15,2013-03-16 19:55:00,
2013-03-16 13:06:00,59.8,49.2,29.84,SE,130,4.0,4.0,68,0.00,,,0.00,Wunderground v.1.15,2013-03-16 20:06:00,
2013-03-16 13:25:00,62.5,50.2,29.84,South,181,3.0,5.0,64,0.00,,,0.00,Wunderground v.1.15,2013-03-16 20:25:00,
2013-03-16 13:30:00,62.7,49.9,29.83,SE,136,4.0,5.0,63,0.00,,,0.00,Wunderground v.1.15,2013-03-16 20:30:00,
2013-03-16 13:40:00,61.6,49.7,29.83,SW,226,5.0,5.0,65,0.00,,,0.00,Wunderground v.1.15,2013-03-16 20:40:00,
2013-03-16 13:55:00,62.2,50.3,29.83,South,174,5.0,5.0,65,0.00,,,0.00,Wunderground v.1.15,2013-03-16 20:55:00,
2013-03-16 14:00:00,62.0,50.5,29.83,SSW,195,5.0,5.0,66,0.00,,,0.00,Wunderground v.1.15,2013-03-16 21:00:00,
2013-03-16 14:06:00,62.8,50.9,29.82,SW,216,6.0,6.0,65,0.00,,,0.00,Wunderground v.1.15,2013-03-16 21:06:00,
2013-03-16 14:10:00,62.8,50.9,29.82,SSE,167,5.0,6.0,65,0.00,,,0.00,Wunderground v.1.15,2013-03-16 21:10:00,
2013-03-16 14:15:00,63.0,50.2,29.82,SW,220,5.0,7.0,63,0.00,,,0.00,Wunderground v.1.15,2013-03-16 21:15:00,
2013-03-16 14:25:00,61.9,50.4,29.81,SSW,202,6.0,6.0,66,0.00,,,0.00,Wunderground v.1.15,2013-03-16 21:25:00,
2013-03-16 14:35:00,62.0,50.5,29.81,South,179,5.0,11.0,66,0.00,,,0.00,Wunderground v.1.15,2013-03-16 21:35:00,
2013-03-16 14:40:00,62.2,49.9,29.81,SSE,150,5.0,11.0,64,0.00,,,0.00,Wunderground v.1.15,2013-03-16 21:40:00,
2013-03-16 14:46:00,62.4,50.5,29.80,SSW,198,6.0,6.0,65,0.00,,,0.00,Wunderground v.1.15,2013-03-16 21:46:00,
2013-03-16 14:50:00,62.0,50.1,29.80,SSW,206,6.0,6.0,65,0.00,,,0.00,Wunderground v.1.15,2013-03-16 21:50:00,
2013-03-16 15:00:00,62.2,50.3,29.80,South,185,6.0,7.0,65,0.00,,,0.00,Wunderground v.1.15,2013-03-16 22:00:00,
2013-03-16 15:15:00,61.9,50.4,29.80,SSW,199,5.0,5.0,66,0.00,,,0.00,Wunderground v.1.15,2013-03-16 22:15:00,
2013-03-16 15:20:00,62.2,50.7,29.80,SW,230,5.0,10.0,66,0.00,,,0.00,Wunderground v.1.15,2013-03-16 22:20:00,
2013-03-16 15:30:00,61.1,50.5,29.79,SSW,206,6.0,10.0,68,0.00,,,0.00,Wunderground v.1.15,2013-03-16 22:30:00,
2013-03-16 15:40:00,62.0,50.1,29.79,SSE,161,5.0,5.0,65,0.00,,,0.00,Wunderground v.1.15,2013-03-16 22:40:00,
2013-03-16 15:50:00,61.9,50.0,29.79,South,191,6.0,11.0,65,0.00,,,0.00,Wunderground v.1.15,2013-03-16 22:50:00,
2013-03-16 15:55:00,61.9,50.0,29.79,SW,215,6.0,11.0,65,0.00,,,0.00,Wunderground v.1.15,2013-03-16 22:55:00,
2013-03-16 16:05:00,61.4,50.7,29.80,South,184,6.0,10.0,68,0.00,,,0.00,Wunderground v.1.15,2013-03-16 23:05:00,
2013-03-16 16:15:00,61.2,50.6,29.80,SW,232,5.0,8.0,68,0.00,,,0.00,Wunderground v.1.15,2013-03-16 23:15:00,
2013-03-16 16:20:00,60.9,50.7,29.80,SSW,203,5.0,8.0,69,0.00,,,0.00,Wunderground v.1.15,2013-03-16 23:20:00,
2013-03-16 16:30:00,60.8,50.6,29.80,SSW,213,6.0,6.0,69,0.00,,,0.00,Wunderground v.1.15,2013-03-16 23:30:00,
2013-03-16 16:40:00,60.0,50.2,29.80,SW,229,7.0,8.0,70,0.00,,,0.00,Wunderground v.1.15,2013-03-16 23:40:00,
2013-03-16 16:55:00,60.3,50.9,29.80,SW,223,6.0,7.0,71,0.00,,,0.00,Wunderground v.1.15,2013-03-16 23:55:00,
2013-03-16 17:05:00,60.0,50.6,29.80,SW,219,7.0,7.0,71,0.00,,,0.00,Wunderground v.1.15,2013-03-17 00:05:00,
2013-03-16 17:10:00,60.1,50.7,29.80,SSE,165,6.0,11.0,71,0.00,,,0.00,Wunderground v.1.15,2013-03-17 00:10:00,
2013-03-16 17:15:00,60.5,50.7,29.80,South,175,6.0,6.0,70,0.00,,,0.00,Wunderground v.1.15,2013-03-17 00:15:00,
2013-03-16 17:25:00,60.6,50.8,29.80,South,171,5.0,5.0,70,0.00,,,0.00,Wunderground v.1.15,2013-03-17 00:25:00,
2013-03-16 17:41:00,60.8,50.6,29.79,SSW,199,5.0,5.0,69,0.00,,,0.00,Wunderground v.1.15,2013-03-17 00:41:00,
2013-03-16 17:45:00,60.6,50.4,29.79,SW,220,5.0,5.0,69,0.00,,,0.00,Wunderground v.1.15,2013-03-17 00:45:00,
2013-03-16 17:50:00,60.5,50.7,29.79,South,191,4.0,5.0,70,0.00,,,0.00,Wunderground v.1.15,2013-03-17 00:50:00,
2013-03-16 18:05:00,60.1,50.3,29.79,SSE,155,3.0,3.0,70,0.00,,,0.00,Wunderground v.1.15,2013-03-17 01:05:00,
2013-03-16 18:20:00,59.0,50.0,29.79,South,178,3.0,3.0,72,0.00,,,0.00,Wunderground v.1.15,2013-03-17 01:20:00,
2013-03-16 18:25:00,59.0,50.4,29.79,South,171,2.0,3.0,73,0.00,,,0.00,Wunderground v.1.15,2013-03-17 01:25:00,
2013-03-16 18:30:00,58.6,50.0,29.79,SSE,152,3.0,5.0,73,0.00,,,0.00,Wunderground v.1.15,2013-03-17 01:30:00,
2013-03-16 18:45:00,56.9,49.8,29.80,South,185,5.0,5.0,77,0.00,,,0.00,Wunderground v.1.15,2013-03-17 01:45:00,
2013-03-16 18:55:00,55.8,49.4,29.80,South,185,5.0,5.0,79,0.00,,,0.00,Wunderground v.1.15,2013-03-17 01:55:00,
2013-03-16 19:25:00,54.5,49.4,29.80,South,176,3.0,6.0,83,0.00,,,0.00,Wunderground v.1.15,2013-03-17 02:25:00,
2013-03-16 19:30:00,54.4,49.3,29.81,SSE,165,4.0,6.0,83,0.00,,,0.00,Wunderground v.1.15,2013-03-17 02:30:00,
2013-03-16 19:35:00,54.2,49.1,29.81,SSE,157,4.0,4.0,83,0.00,,,0.00,Wunderground v.1.15,2013-03-17 02:35:00,
2013-03-16 19:41:00,53.9,48.9,29.81,SE,143,4.0,4.0,83,0.00,,,0.00,Wunderground v.1.15,2013-03-17 02:41:00,
2013-03-16 19:46:00,53.9,49.2,29.81,South,171,3.0,3.0,84,0.00,,,0.00,Wunderground v.1.15,2013-03-17 02:46:00,
2013-03-16 20:00:00,53.6,48.9,29.81,SSE,154,4.0,5.0,84,0.00,,,0.00,Wunderground v.1.15,2013-03-17 03:00:00,
2013-03-16 20:05:00,53.6,48.9,29.82,SSE,164,3.0,5.0,84,0.00,,,0.00,Wunderground v.1.15,2013-03-17 03:05:00,
2013-03-16 20:10:00,53.5,49.1,29.82,SSW,193,3.0,3.0,85,0.00,,,0.00,Wunderground v.1.15,2013-03-17 03:10:00,
2013-03-16 20:15:00,53.5,49.1,29.83,SSW,198,3.0,3.0,85,0.00,,,0.00,Wunderground v.1.15,2013-03-17 03:15:00,
2013-03-16 20:20:00,53.5,49.1,29.83,SW,223,3.0,5.0,85,0.00,,,0.00,Wunderground v.1.15,2013-03-17 03:20:00,
2013-03-16 20:26:00,53.5,49.1,29.83,South,185,3.0,5.0,85,0.00,,,0.00,Wunderground v.1.15,2013-03-17 03:26:00,
2013-03-16 20:41:00,53.5,49.4,29.83,South,171,4.0,6.0,86,0.00,,,0.00,Wunderground v.1.15,2013-03-17 03:41:00,
2013-03-16 21:15:00,53.5,49.4,29.84,SSE,161,2.0,2.0,86,0.00,,,0.00,Wunderground v.1.15,2013-03-17 04:15:00,
2013-03-16 21:20:00,53.5,49.4,29.84,South,172,2.0,2.0,86,0.00,,,0.00,Wunderground v.1.15,2013-03-17 04:20:00,
2013-03-16 21:25:00,53.5,49.4,29.84,SSW,192,2.0,2.0,86,0.00,,,0.00,Wunderground v.1.15,2013-03-17 04:25:00,
2013-03-16 21:30:00,53.5,49.4,29.84,South,171,1.0,3.0,86,0.00,,,0.00,Wunderground v.1.15,2013-03-17 04:30:00,
2013-03-16 21:35:00,53.5,49.4,29.84,South,185,2.0,2.0,86,0.00,,,0.00,Wunderground v.1.15,2013-03-17 04:35:00,
2013-03-16 22:00:00,53.6,49.5,29.85,SSE,154,2.0,2.0,86,0.00,,,0.00,Wunderground v.1.15,2013-03-17 05:00:00,
2013-03-16 22:05:00,53.6,49.5,29.85,ESE,119,2.0,4.0,86,0.00,,,0.00,Wunderground v.1.15,2013-03-17 05:05:00,
2013-03-16 22:10:00,53.6,49.5,29.85,ESE,109,2.0,2.0,86,0.00,,,0.00,Wunderground v.1.15,2013-03-17 05:10:00,
2013-03-16 22:30:00,53.8,49.7,29.85,SE,136,1.0,5.0,86,0.00,,,0.00,Wunderground v.1.15,2013-03-17 05:30:00,
2013-03-16 22:35:00,53.8,49.7,29.85,SE,136,2.0,5.0,86,0.00,,,0.00,Wunderground v.1.15,2013-03-17 05:35:00,
2013-03-16 22:40:00,53.8,49.7,29.85,SE,136,2.0,2.0,86,0.00,,,0.00,Wunderground v.1.15,2013-03-17 05:40:00,
2013-03-16 22:45:00,53.8,49.7,29.85,ESE,109,1.0,2.0,86,0.00,,,0.00,Wunderground v.1.15,2013-03-17 05:45:00,
2013-03-16 22:50:00,53.8,49.7,29.85,East,99,2.0,4.0,86,0.00,,,0.00,Wunderground v.1.15,2013-03-17 05:50:00,
2013-03-16 22:55:00,53.8,49.7,29.85,ESE,103,2.0,4.0,86,0.00,,,0.00,Wunderground v.1.15,2013-03-17 05:55:00,
2013-03-16 23:00:00,53.8,49.7,29.85,ESE,103,2.0,2.0,86,0.00,,,0.00,Wunderground v.1.15,2013-03-17 06:00:00,
2013-03-16 23:15:00,53.9,49.8,29.84,ESE,117,2.0,6.0,86,0.00,,,0.00,Wunderground v.1.15,2013-03-17 06:15:00,
2013-03-16 23:20:00,54.1,50.0,29.84,SE,130,3.0,6.0,86,0.00,,,0.00,Wunderground v.1.15,2013-03-17 06:20:00,
2013-03-16 23:30:00,53.9,49.8,29.84,SE,128,4.0,5.0,86,0.00,,,0.00,Wunderground v.1.15,2013-03-17 06:30:00,
2013-03-16 23:35:00,53.9,49.8,29.84,SE,133,3.0,5.0,86,0.00,,,0.00,Wunderground v.1.15,2013-03-17 06:35:00,
2013-03-16 23:40:00,53.8,49.7,29.84,SE,143,3.0,7.0,86,0.00,,,0.00,Wunderground v.1.15,2013-03-17 06:40:00,
2013-03-16 23:50:00,53.6,49.5,29.84,ESE,120,4.0,5.0,86,0.00,,,0.00,Wunderground v.1.15,2013-03-17 06:50:00,
2013-03-16 23:55:00,53.6,49.5,29.84,SE,137,4.0,5.0,86,0.00,,,0.00,Wunderground v.1.15,2013-03-17 06:55:00,